createdAt,value
2022-07-30T00:01:14.184Z,4.97
2022-07-30T00:03:40.902Z,4.63
2022-07-30T00:06:07.715Z,3.90
2022-07-30T00:08:34.787Z,3.33
2022-07-30T00:11:01.631Z,3.07
2022-07-30T00:13:28.268Z,2.80
2022-07-30T00:15:54.913Z,2.30
2022-07-30T00:18:22.324Z,2.00
2022-07-30T00:20:49.208Z,1.60
2022-07-30T00:23:15.806Z,1.77
2022-07-30T00:25:42.400Z,1.10
2022-07-30T00:28:08.984Z,1.03
2022-07-30T00:30:36.038Z,1.03
2022-07-30T00:33:02.678Z,2.70
2022-07-30T00:35:29.375Z,0.80
2022-07-30T00:37:56.298Z,1.00
2022-07-30T00:40:23.129Z,0.80
2022-07-30T00:42:49.766Z,0.80
2022-07-30T00:45:17.893Z,0.70
2022-07-30T00:47:44.815Z,0.70
2022-07-30T00:50:12.767Z,0.70
2022-07-30T00:52:39.817Z,0.63
2022-07-30T00:55:08.153Z,0.57
2022-07-30T00:57:34.869Z,1.27
2022-07-30T01:00:01.724Z,0.70
2022-07-30T01:02:28.520Z,1.13
2022-07-30T01:04:55.179Z,0.50
2022-07-30T01:07:21.843Z,0.50
2022-07-30T01:09:53.782Z,0.50
2022-07-30T01:12:21.875Z,0.93
2022-07-30T01:14:49.053Z,0.60
2022-07-30T01:17:16.185Z,1.80
2022-07-30T01:19:48.892Z,0.80
2022-07-30T01:22:24.389Z,1.07
2022-07-30T01:25:04.451Z,0.53
2022-07-30T01:27:44.511Z,0.73
2022-07-30T01:30:14.576Z,0.60
2022-07-30T01:32:43.261Z,0.73
2022-07-30T01:35:11.315Z,0.77
2022-07-30T01:37:39.563Z,0.70
2022-07-30T01:40:06.996Z,0.60
2022-07-30T01:42:34.905Z,0.83
2022-07-30T01:45:02.147Z,0.80
2022-07-30T01:47:29.457Z,0.70
2022-07-30T01:49:57.324Z,0.90
2022-07-30T01:52:24.837Z,0.70
2022-07-30T01:54:54.451Z,0.90
2022-07-30T01:57:21.497Z,0.97
2022-07-30T01:59:51.923Z,0.93
2022-07-30T02:02:19.617Z,0.77
2022-07-30T02:04:46.689Z,0.93
2022-07-30T02:07:17.873Z,0.80
2022-07-30T02:09:52.330Z,0.80
2022-07-30T02:12:29.156Z,3.30
2022-07-30T02:15:04.393Z,0.93
2022-07-30T02:17:39.857Z,0.90
2022-07-30T02:20:13.489Z,1.00
2022-07-30T02:22:44.335Z,0.77
2022-07-30T02:25:15.139Z,1.10
2022-07-30T02:27:43.470Z,1.10
2022-07-30T02:30:11.133Z,1.10
2022-07-30T02:32:40.343Z,0.90
2022-07-30T02:35:15.896Z,1.50
2022-07-30T02:37:44.425Z,0.93
2022-07-30T02:40:15.053Z,1.20
2022-07-30T02:42:43.697Z,1.00
2022-07-30T02:45:13.173Z,1.50
2022-07-30T02:47:41.185Z,1.67
2022-07-30T02:50:09.291Z,2.10
2022-07-30T02:52:38.671Z,1.90
2022-07-30T02:55:05.950Z,2.00
2022-07-30T02:57:33.061Z,2.13
2022-07-30T03:00:00.083Z,2.10
2022-07-30T03:02:29.670Z,2.13
2022-07-30T03:04:58.033Z,2.97
2022-07-30T03:07:25.304Z,2.57
2022-07-30T03:09:53.081Z,2.40
2022-07-30T03:12:19.955Z,2.30
2022-07-30T03:14:46.583Z,2.80
2022-07-30T03:17:15.746Z,2.73
2022-07-30T03:19:45.205Z,2.37
2022-07-30T03:22:12.928Z,2.77
2022-07-30T03:24:41.006Z,2.50
2022-07-30T03:27:10.830Z,3.30
2022-07-30T03:29:38.767Z,2.97
2022-07-30T03:32:06.300Z,3.43
2022-07-30T03:34:35.107Z,3.10
2022-07-30T03:37:04.976Z,3.63
2022-07-30T03:39:37.262Z,2.77
2022-07-30T03:42:06.888Z,2.67
2022-07-30T03:44:34.296Z,3.20
2022-07-30T03:47:05.384Z,2.80
2022-07-30T03:49:37.069Z,3.17
2022-07-30T03:52:05.040Z,3.10
2022-07-30T03:54:35.500Z,3.27
2022-07-30T03:57:22.109Z,3.20
2022-07-30T03:59:51.684Z,3.20
2022-07-30T04:02:20.329Z,3.17
2022-07-30T04:05:22.638Z,3.83
2022-07-30T04:07:50.624Z,3.40
2022-07-30T04:10:19.923Z,3.57
2022-07-30T04:13:09.457Z,3.50
2022-07-30T04:16:40.168Z,3.40
2022-07-30T04:18:51.211Z,3.30
2022-07-30T04:21:19.198Z,3.47
2022-07-30T04:24:04.574Z,3.53
2022-07-30T04:26:36.012Z,3.20
2022-07-30T04:29:05.779Z,3.40
2022-07-30T04:31:40.051Z,3.40
2022-07-30T04:34:27.990Z,3.40
2022-07-30T04:36:54.694Z,3.17
2022-07-30T04:39:21.339Z,3.37
2022-07-30T04:41:48.801Z,3.13
2022-07-30T04:44:34.419Z,3.30
2022-07-30T04:47:21.598Z,2.97
2022-07-30T04:50:04.846Z,3.67
2022-07-30T04:52:31.783Z,3.30
2022-07-30T04:55:03.160Z,3.43
2022-07-30T04:57:31.553Z,3.13
2022-07-30T04:59:58.570Z,3.23
2022-07-30T05:02:27.246Z,3.37
2022-07-30T05:04:54.513Z,3.10
2022-07-30T05:07:22.396Z,2.90
2022-07-30T05:09:50.217Z,3.23
2022-07-30T05:12:16.950Z,3.10
2022-07-30T05:14:48.093Z,3.20
2022-07-30T05:17:16.233Z,3.03
2022-07-30T05:19:43.403Z,3.20
2022-07-30T05:22:10.966Z,2.77
2022-07-30T05:24:37.731Z,3.07
2022-07-30T05:27:04.596Z,2.80
2022-07-30T05:29:31.408Z,3.87
2022-07-30T05:32:08.715Z,3.00
2022-07-30T05:34:36.338Z,3.30
2022-07-30T05:37:03.433Z,3.10
2022-07-30T05:39:31.381Z,3.20
2022-07-30T05:42:31.723Z,3.00
2022-07-30T05:45:00.230Z,4.63
2022-07-30T05:47:27.054Z,2.93
2022-07-30T05:49:53.864Z,2.50
2022-07-30T05:52:20.632Z,2.63
2022-07-30T05:54:47.330Z,3.73
2022-07-30T05:57:35.918Z,2.70
2022-07-30T06:00:07.679Z,2.80
2022-07-30T06:02:53.062Z,3.10
2022-07-30T06:05:25.659Z,2.60
2022-07-30T06:07:52.994Z,4.03
2022-07-30T06:10:22.201Z,3.13
2022-07-30T06:12:48.804Z,2.20
2022-07-30T06:15:25.620Z,3.60
2022-07-30T06:18:02.071Z,1.87
2022-07-30T06:20:42.364Z,2.80
2022-07-30T06:23:33.277Z,2.77
2022-07-30T06:26:12.523Z,2.70
2022-07-30T06:28:40.077Z,2.67
2022-07-30T06:31:27.127Z,2.00
2022-07-30T06:33:54.086Z,4.23
2022-07-30T06:36:20.848Z,2.60
2022-07-30T06:39:11.152Z,2.60
2022-07-30T06:42:04.274Z,2.17
2022-07-30T06:44:50.908Z,1.53
2022-07-30T06:47:26.351Z,1.80
2022-07-30T06:49:53.938Z,2.07
2022-07-30T06:52:21.200Z,1.77
2022-07-30T06:54:51.325Z,1.60
2022-07-30T06:57:28.911Z,1.77
2022-07-30T06:59:57.918Z,1.90
2022-07-30T07:02:34.088Z,1.60
2022-07-30T07:05:07.422Z,1.50
2022-07-30T07:07:41.780Z,1.60
2022-07-30T07:10:11.961Z,1.67
2022-07-30T07:12:57.234Z,1.40
2022-07-30T07:15:36.392Z,2.70
2022-07-30T07:18:06.632Z,1.70
2022-07-30T07:20:36.808Z,1.60
2022-07-30T07:23:09.488Z,1.50
2022-07-30T07:25:39.726Z,1.67
2022-07-30T07:28:12.095Z,1.60
2022-07-30T07:30:43.879Z,1.53
2022-07-30T07:33:12.219Z,2.43
2022-07-30T07:35:48.567Z,1.50
2022-07-30T07:38:21.184Z,1.80
2022-07-30T07:40:49.061Z,1.47
2022-07-30T07:43:15.980Z,1.40
2022-07-30T07:45:43.124Z,1.63
2022-07-30T07:48:10.264Z,1.00
2022-07-30T07:51:00.403Z,1.30
2022-07-30T07:53:30.423Z,1.47
2022-07-30T07:55:57.398Z,1.33
2022-07-30T07:58:26.592Z,1.10
2022-07-30T08:00:57.050Z,1.60
2022-07-30T08:03:40.591Z,1.40
2022-07-30T08:06:25.694Z,2.37
2022-07-30T08:09:27.373Z,1.60
2022-07-30T08:12:27.375Z,1.70
2022-07-30T08:15:12.442Z,1.30
2022-07-30T08:18:03.748Z,1.50
2022-07-30T08:20:56.715Z,1.40
2022-07-30T08:23:28.543Z,3.50
2022-07-30T08:25:57.919Z,1.73
2022-07-30T08:28:36.407Z,1.38
2022-07-30T08:31:04.688Z,1.40
2022-07-30T08:33:31.289Z,1.40
2022-07-30T08:35:59.181Z,1.60
2022-07-30T08:38:30.848Z,1.50
2022-07-30T08:40:58.454Z,2.58
2022-07-30T08:43:26.101Z,1.70
2022-07-30T08:45:56.507Z,1.73
2022-07-30T08:51:19.579Z,3.10
2022-07-30T08:54:16.490Z,4.18
2022-07-30T08:56:45.115Z,2.85
2022-07-30T08:59:12.211Z,3.60
2022-07-30T09:01:43.457Z,1.90
2022-07-30T09:04:13.505Z,1.85
2022-07-30T09:06:43.050Z,2.40
2022-07-30T09:09:10.556Z,2.20
2022-07-30T09:11:44.987Z,2.45
2022-07-30T09:14:17.592Z,3.30
2022-07-30T09:16:45.633Z,2.63
2022-07-30T09:19:18.375Z,2.40
2022-07-30T09:22:02.341Z,2.83
2022-07-30T09:24:47.605Z,2.60
2022-07-30T09:27:52.665Z,3.07
2022-07-30T09:30:53.905Z,2.77
2022-07-30T09:33:59.192Z,3.08
2022-07-30T09:36:43.974Z,2.92
2022-07-30T09:39:41.845Z,3.08
2022-07-30T09:42:20.820Z,3.25
2022-07-30T09:44:48.413Z,3.05
2022-07-30T09:47:33.185Z,2.90
2022-07-30T09:50:08.328Z,3.45
2022-07-30T09:52:36.053Z,3.60
2022-07-30T09:55:12.090Z,3.47
2022-07-30T09:57:57.711Z,4.10
2022-07-30T10:00:28.665Z,3.33
2022-07-30T10:03:38.370Z,3.65
2022-07-30T10:06:43.329Z,3.95
2022-07-30T10:09:32.741Z,3.83
2022-07-30T10:12:10.309Z,3.80
2022-07-30T10:14:43.791Z,3.88
2022-07-30T10:17:13.140Z,4.15
2022-07-30T10:19:41.919Z,3.95
2022-07-30T10:22:27.895Z,4.20
2022-07-30T10:25:27.997Z,4.07
2022-07-30T10:28:14.590Z,3.97
2022-07-30T10:30:43.582Z,4.30
2022-07-30T10:33:34.143Z,3.95
2022-07-30T10:35:59.031Z,4.32
2022-07-30T10:38:30.677Z,4.25
2022-07-30T10:41:06.215Z,4.68
2022-07-30T10:43:56.301Z,4.45
2022-07-30T10:46:49.949Z,4.63
2022-07-30T10:49:19.371Z,4.43
2022-07-30T10:51:55.114Z,4.60
2022-07-30T10:54:41.469Z,4.82
2022-07-30T10:57:14.925Z,5.20
2022-07-30T10:59:49.793Z,4.28
2022-07-30T11:02:18.490Z,4.15
2022-07-30T11:04:46.943Z,4.30
2022-07-30T11:07:23.533Z,4.43
2022-07-30T11:10:05.871Z,4.13
2022-07-30T11:12:42.178Z,4.20
2022-07-30T11:15:19.082Z,3.92
2022-07-30T11:18:05.006Z,4.45
2022-07-30T11:20:39.894Z,4.68
2022-07-30T11:23:29.462Z,3.97
2022-07-30T11:26:02.068Z,3.97
2022-07-30T11:28:35.426Z,4.20
2022-07-30T11:31:02.311Z,4.07
2022-07-30T11:33:37.694Z,3.30
2022-07-30T11:36:12.024Z,4.00
2022-07-30T11:39:06.712Z,4.13
2022-07-30T11:41:34.136Z,3.70
2022-07-30T11:44:26.430Z,3.88
2022-07-30T11:46:53.243Z,3.80
2022-07-30T11:49:20.162Z,3.78
2022-07-30T11:51:47.804Z,3.63
2022-07-30T11:54:15.354Z,3.97
2022-07-30T11:56:53.796Z,3.88
2022-07-30T11:59:20.746Z,3.65
2022-07-30T12:02:00.294Z,4.32
2022-07-30T12:04:27.346Z,4.28
2022-07-30T12:06:54.071Z,3.72
2022-07-30T12:09:27.493Z,3.53
2022-07-30T12:11:54.858Z,3.60
2022-07-30T12:14:21.467Z,3.28
2022-07-30T12:16:54.644Z,3.67
2022-07-30T12:19:21.331Z,3.35
2022-07-30T12:21:52.511Z,3.60
2022-07-30T12:24:25.257Z,3.40
2022-07-30T12:26:51.872Z,3.35
2022-07-30T12:29:18.614Z,3.63
2022-07-30T12:31:46.181Z,3.70
2022-07-30T12:34:20.703Z,3.63
2022-07-30T12:36:47.482Z,3.35
2022-07-30T12:39:20.243Z,3.55
2022-07-30T12:41:49.514Z,3.40
2022-07-30T12:44:38.801Z,3.40
2022-07-30T12:47:07.250Z,3.40
2022-07-30T12:49:36.578Z,3.40
2022-07-30T12:52:28.214Z,3.63
2022-07-30T12:55:11.002Z,4.18
2022-07-30T12:58:02.957Z,3.55
2022-07-30T13:00:44.728Z,3.47
2022-07-30T13:03:24.805Z,3.40
2022-07-30T13:05:55.333Z,3.05
2022-07-30T13:08:45.933Z,3.30
2022-07-30T13:11:13.309Z,3.60
2022-07-30T13:13:40.153Z,3.35
2022-07-30T13:16:07.382Z,3.15
2022-07-30T13:18:35.802Z,2.92
2022-07-30T13:21:03.320Z,3.13
2022-07-30T13:23:30.051Z,3.17
2022-07-30T13:25:57.558Z,3.10
2022-07-30T13:28:24.951Z,3.40
2022-07-30T13:30:51.898Z,3.35
2022-07-30T13:33:18.864Z,3.60
2022-07-30T13:35:45.434Z,3.53
2022-07-30T13:38:13.542Z,3.53
2022-07-30T13:40:40.514Z,3.65
2022-07-30T13:43:07.445Z,3.40
2022-07-30T13:45:34.890Z,4.85
2022-07-30T13:48:01.892Z,4.82
2022-07-30T13:50:28.618Z,3.47
2022-07-30T13:53:01.760Z,3.42
2022-07-30T13:55:29.240Z,3.15
2022-07-30T13:57:56.146Z,3.45
2022-07-30T14:00:23.124Z,3.83
2022-07-30T14:02:49.853Z,3.50
2022-07-30T14:05:16.565Z,3.80
2022-07-30T14:07:43.239Z,3.97
2022-07-30T14:10:09.854Z,3.20
2022-07-30T14:12:37.872Z,3.45
2022-07-30T14:15:04.932Z,3.33
2022-07-30T14:17:31.709Z,3.58
2022-07-30T14:19:58.457Z,3.45
2022-07-30T14:22:25.117Z,3.03
2022-07-30T14:24:51.805Z,3.30
2022-07-30T14:27:20.579Z,3.10
2022-07-30T14:29:47.574Z,3.60
2022-07-30T14:32:14.388Z,3.30
2022-07-30T14:34:41.401Z,3.75
2022-07-30T14:37:16.299Z,3.50
2022-07-30T14:39:42.909Z,3.58
2022-07-30T14:42:09.626Z,4.03
2022-07-30T14:44:36.206Z,3.30
2022-07-30T14:47:03.321Z,4.22
2022-07-30T14:49:30.613Z,3.95
2022-07-30T14:51:57.435Z,3.63
2022-07-30T14:54:24.096Z,3.75
2022-07-30T14:56:54.850Z,3.38
2022-07-30T14:59:23.068Z,3.83
2022-07-30T15:01:49.781Z,3.30
2022-07-30T15:04:16.617Z,3.28
2022-07-30T15:06:43.267Z,3.10
2022-07-30T15:09:10.378Z,2.72
2022-07-30T15:12:04.406Z,2.90
2022-07-30T15:14:24.740Z,3.03
2022-07-30T15:16:51.450Z,3.05
2022-07-30T15:19:18.082Z,2.63
2022-07-30T15:21:44.953Z,2.88
2022-07-30T15:24:11.687Z,2.67
2022-07-30T15:26:38.314Z,2.90
2022-07-30T15:29:04.959Z,2.97
2022-07-30T15:31:31.683Z,2.63
2022-07-30T15:33:58.259Z,2.60
2022-07-30T15:36:24.891Z,4.53
2022-07-30T15:38:51.514Z,2.70
2022-07-30T15:41:18.137Z,2.70
2022-07-30T15:43:44.834Z,2.67
2022-07-30T15:46:11.474Z,2.40
2022-07-30T15:48:38.060Z,2.35
2022-07-30T15:51:06.021Z,3.47
2022-07-30T15:53:32.976Z,2.80
2022-07-30T15:56:00.330Z,2.55
2022-07-30T15:58:27.042Z,2.50
2022-07-30T16:00:53.796Z,2.75
2022-07-30T16:03:20.526Z,2.80
2022-07-30T16:05:52.436Z,2.67
2022-07-30T16:08:20.551Z,3.22
2022-07-30T16:10:48.037Z,3.58
2022-07-30T16:13:14.809Z,2.88
2022-07-30T16:15:41.392Z,2.97
2022-07-30T16:18:08.305Z,2.78
2022-07-30T16:20:34.960Z,2.75
2022-07-30T16:23:01.549Z,2.85
2022-07-30T16:25:28.203Z,2.97
2022-07-30T16:27:54.790Z,2.70
2022-07-30T16:30:23.373Z,3.13
2022-07-30T16:32:55.337Z,2.90
2022-07-30T16:35:23.163Z,3.53
2022-07-30T16:37:49.831Z,2.90
2022-07-30T16:40:16.655Z,3.00
2022-07-30T16:42:43.428Z,2.85
2022-07-30T16:45:10.355Z,2.85
2022-07-30T16:47:36.956Z,3.25
2022-07-30T16:50:03.848Z,2.90
2022-07-30T16:52:30.444Z,3.33
2022-07-30T16:54:57.069Z,3.95
2022-07-30T16:57:23.654Z,3.10
2022-07-30T16:59:50.296Z,4.03
2022-07-30T17:02:16.897Z,2.20
2022-07-30T17:04:43.498Z,2.38
2022-07-30T17:07:10.181Z,2.10
2022-07-30T17:09:37.127Z,2.15
2022-07-30T17:12:06.321Z,2.45
2022-07-30T17:14:42.329Z,2.10
2022-07-30T17:17:13.781Z,2.22
2022-07-30T17:19:41.197Z,3.25
2022-07-30T17:22:07.820Z,2.60
2022-07-30T17:24:34.635Z,2.75
2022-07-30T17:27:01.324Z,2.60
2022-07-30T17:29:27.942Z,2.80
2022-07-30T17:31:55.511Z,2.95
2022-07-30T17:34:22.422Z,2.75
2022-07-30T17:36:51.514Z,2.90
2022-07-30T17:40:04.337Z,3.05
2022-07-30T17:42:08.619Z,2.85
2022-07-30T17:44:35.639Z,3.28
2022-07-30T17:47:02.275Z,2.83
2022-07-30T17:49:30.006Z,3.15
2022-07-30T17:51:56.798Z,2.85
2022-07-30T17:54:23.562Z,2.97
2022-07-30T17:56:50.239Z,3.20
2022-07-30T17:59:16.843Z,2.92
2022-07-30T18:01:43.482Z,3.08
2022-07-30T18:04:10.110Z,3.05
2022-07-30T18:06:36.881Z,3.15
2022-07-30T18:09:04.705Z,3.40
2022-07-30T18:11:31.362Z,3.10
2022-07-30T18:13:58.412Z,3.22
2022-07-30T18:16:25.084Z,3.20
2022-07-30T18:18:51.872Z,3.20
2022-07-30T18:21:18.523Z,3.60
2022-07-30T18:23:45.242Z,2.90
2022-07-30T18:26:12.569Z,3.13
2022-07-30T18:28:39.189Z,2.90
2022-07-30T18:31:06.199Z,3.13
2022-07-30T18:33:32.884Z,3.10
2022-07-30T18:35:59.571Z,3.00
2022-07-30T18:38:26.195Z,3.15
2022-07-30T18:40:58.842Z,3.40
2022-07-30T18:43:28.936Z,3.03
2022-07-30T18:45:56.325Z,3.22
2022-07-30T18:48:23.420Z,3.25
2022-07-30T18:50:50.477Z,3.25
2022-07-30T18:53:17.089Z,3.13
2022-07-30T18:55:43.789Z,3.13
2022-07-30T18:58:10.343Z,3.20
2022-07-30T19:00:37.481Z,2.90
2022-07-30T19:03:04.292Z,2.73
2022-07-30T19:05:31.118Z,2.63
2022-07-30T19:07:58.707Z,3.03
2022-07-30T19:10:26.553Z,3.17
2022-07-30T19:12:54.608Z,3.13
2022-07-30T19:15:21.214Z,3.60
2022-07-30T19:17:49.281Z,3.00
2022-07-30T19:20:15.929Z,3.17
2022-07-30T19:22:42.637Z,3.00
2022-07-30T19:25:10.345Z,3.00
2022-07-30T19:27:36.983Z,3.10
2022-07-30T19:30:04.939Z,2.90
2022-07-30T19:32:31.546Z,2.67
2022-07-30T19:34:58.267Z,3.67
2022-07-30T19:37:24.845Z,3.00
2022-07-30T19:40:05.701Z,3.33
2022-07-30T19:42:33.666Z,2.83
2022-07-30T19:45:01.403Z,3.43
2022-07-30T19:47:39.598Z,4.13
2022-07-30T19:50:10.019Z,2.80
2022-07-30T19:52:37.029Z,3.50
2022-07-30T19:55:17.102Z,3.00
2022-07-30T20:00:39.307Z,3.07
2022-07-30T20:03:05.957Z,3.77
2022-07-30T20:05:32.670Z,3.10
2022-07-30T20:08:24.882Z,3.40
2022-07-30T20:10:52.280Z,2.80
2022-07-30T20:13:18.912Z,2.60
2022-07-30T20:15:46.300Z,3.10
2022-07-30T20:18:13.057Z,3.07
2022-07-30T20:20:41.616Z,3.67
2022-07-30T20:23:08.261Z,2.80
2022-07-30T20:25:37.424Z,3.47
2022-07-30T20:28:05.308Z,3.00
2022-07-30T20:30:32.667Z,2.90
2022-07-30T20:32:59.579Z,2.93
2022-07-30T20:35:27.739Z,2.80
2022-07-30T20:37:56.655Z,2.77
2022-07-30T20:40:24.691Z,2.93
2022-07-30T20:42:53.654Z,2.80
2022-07-30T20:45:24.393Z,3.10
2022-07-30T20:47:55.356Z,2.80
2022-07-30T20:50:30.236Z,2.63
2022-07-30T20:52:58.199Z,2.23
2022-07-30T20:55:24.936Z,2.80
2022-07-30T20:57:56.418Z,2.47
2022-07-30T21:00:28.007Z,2.87
2022-07-30T21:02:54.598Z,2.47
2022-07-30T21:05:21.530Z,2.40
2022-07-30T21:07:48.163Z,3.43
2022-07-30T21:10:20.013Z,2.63
2022-07-30T21:12:50.866Z,2.70
2022-07-30T21:15:23.809Z,2.43
2022-07-30T21:17:51.287Z,3.50
2022-07-30T21:20:27.911Z,2.40
2022-07-30T21:22:55.992Z,2.40
2022-07-30T21:25:23.536Z,2.67
2022-07-30T21:28:00.507Z,2.80
2022-07-30T21:30:30.012Z,3.83
2022-07-30T21:32:56.620Z,2.80
2022-07-30T21:35:23.476Z,2.60
2022-07-30T21:37:50.051Z,3.23
2022-07-30T21:40:19.074Z,2.80
2022-07-30T21:42:51.507Z,3.23
2022-07-30T21:45:19.648Z,4.30
2022-07-30T21:47:47.815Z,2.80
2022-07-30T21:50:16.140Z,2.90
2022-07-30T21:52:43.831Z,3.10
2022-07-30T21:55:13.226Z,3.20
2022-07-30T21:57:40.876Z,2.93
2022-07-30T22:00:21.797Z,3.13
2022-07-30T22:02:52.893Z,2.93
2022-07-30T22:05:20.130Z,2.87
2022-07-30T22:07:49.825Z,2.67
2022-07-30T22:10:21.638Z,3.00
2022-07-30T22:12:48.680Z,2.90
2022-07-30T22:15:15.450Z,3.10
2022-07-30T22:17:58.429Z,3.97
2022-07-30T22:20:28.063Z,2.97
2022-07-30T22:22:56.178Z,3.47
2022-07-30T22:25:23.000Z,3.27
2022-07-30T22:28:06.658Z,2.87
2022-07-30T22:30:34.395Z,3.13
2022-07-30T22:33:13.011Z,4.23
2022-07-30T22:35:41.022Z,2.63
2022-07-30T22:38:13.883Z,3.17
2022-07-30T22:40:41.724Z,3.83
2022-07-30T22:43:12.679Z,3.40
2022-07-30T22:45:48.421Z,2.93
2022-07-30T22:48:16.314Z,3.30
2022-07-30T22:50:42.889Z,2.93
2022-07-30T22:53:23.732Z,3.23
2022-07-30T22:55:58.601Z,3.00
2022-07-30T22:58:26.564Z,3.20
2022-07-30T23:00:53.921Z,3.23
2022-07-30T23:03:21.215Z,3.17
2022-07-30T23:08:34.456Z,3.40
2022-07-30T23:11:01.144Z,3.30
2022-07-30T23:12:16.652Z,2.90
2022-07-30T23:12:30.936Z,3.60
2022-07-30T23:13:28.923Z,3.90
2022-07-30T23:15:55.830Z,3.40
2022-07-30T23:18:22.471Z,3.90
2022-07-30T23:20:49.035Z,3.60
2022-07-30T23:23:15.630Z,3.43
2022-07-30T23:25:42.181Z,3.40
2022-07-30T23:28:08.821Z,3.57
2022-07-30T23:30:35.457Z,3.40
2022-07-30T23:33:02.115Z,3.30
2022-07-30T23:35:28.721Z,3.30
2022-07-30T23:37:55.284Z,3.47
2022-07-30T23:40:22.482Z,3.40
2022-07-30T23:42:50.866Z,3.60
2022-07-30T23:45:18.105Z,3.73
2022-07-30T23:48:01.384Z,3.70
2022-07-30T23:50:31.240Z,3.47
2022-07-30T23:52:57.804Z,3.60
2022-07-30T23:55:24.449Z,3.70
2022-07-30T23:57:51.056Z,3.90
